Historique des mesures à Cassis (13260), France
Quotidien Résumé Janvier 25, 2018 Unités:  US    Métrique   Métrique/US
« Précédent (Jour)
Suivant (Jour) »
Quotidien Hebdomadaire Mensuel Annuel Période au choix
  Maximum: Minimum: Moyenne:
Température: 32 °F 54.3 °F 55.4 °F
Point de rosée: 32 °F 45.1 °F 48.6 °F
Humidité: Humidity % 71 % 74 %
Vitesse du vent: WindSpeedKMH mph 0.0 mph 3.1 mph
Rafales: WindSpeedGustKMH mph - -
Vent:- - SSE
Pression: 0 in 30 in -
Précipitations: 0.0 in    
Historical Graphs
 
 
Mesures pour : Janvier 25, 2018
Heure Temperature Point de rosée Pression Vent Vitesse du vent Rafales Humidité Pluie (par heure)
32 °F 32 °F 0 in Calm     Humidity % HourlyPrecipMM in
00:12 54.3 °F 45.1 °F 30.2 in SE 3.2 mph 18.3 mph 71 % 0.0 in
01:12 54.3 °F 45.9 °F 30.2 in Calm   3.5 mph 73 % 0.0 in
02:12 54.7 °F 46.2 °F 30.2 in ESE 3.5 mph 4.7 mph 73 % 0.0 in
03:12 55.2 °F 47.5 °F 30.2 in SSE 3.2 mph 4.7 mph 75 % 0.0 in
04:12 55.2 °F 47.5 °F 30.2 in ESE 2.9 mph 6.1 mph 75 % 0.0 in
05:12 55.2 °F 48 °F 30.2 in SE 7.2 mph 7.2 mph 77 % 0.0 in
06:12 55.4 °F 48.2 °F 30.2 in Calm   5.0 mph 77 % 0.0 in
07:12 55.6 °F 48.4 °F 30.1 in ENE 2.1 mph 5.5 mph 77 % 0.0 in
08:12 55.6 °F 48.7 °F 30.1 in Calm   11.1 mph 78 % 0.0 in
09:12 56.1 °F 49.6 °F 30.1 in ESE 2.6 mph 5.0 mph 79 % 0.0 in
10:12 56.8 °F 50.7 °F 30.1 in NE 3.5 mph 3.5 mph 80 % 0.0 in
11:12 56.8 °F 51.1 °F 30.1 in SW 11.1 mph 11.1 mph 81 % 0.0 in
12:12 57.4 °F 51.3 °F 30.1 in Calm   2.1 mph 80 % 0.0 in
13:12 58.1 °F 50.9 °F 30.1 in WSW 1.4 mph 3.5 mph 77 % 0.0 in
14:12 59 °F 50.7 °F 30.1 in SSE 4.3 mph 4.3 mph 74 % 0.0 in
15:12 58.6 °F 50 °F 30 in SE 10.1 mph 12.2 mph 73 % 0.0 in
16:12 57.4 °F 49.1 °F 30 in NW 1.8 mph 6.4 mph 74 % 0.0 in
17:12 56.8 °F 49.6 °F 30 in Calm   3.5 mph 77 % 0.0 in
18:12 57 °F 50.2 °F 30 in ESE 4.0 mph 5.8 mph 78 % 0.0 in
19:12 56.8 °F 50.4 °F 30 in SW 4.7 mph 4.7 mph 79 % 0.0 in
20:12 56.8 °F 50.7 °F 30 in SSW 3.2 mph 12.6 mph 80 % 0.0 in
21:12 56.5 °F 50.4 °F 30 in East 2.1 mph 6.4 mph 80 % 0.0 in
22:12 56.8 °F 50.7 °F 30 in ESE 2.9 mph 4.0 mph 80 % 0.0 in
23:12 56.1 °F 49.6 °F 30 in ESE 2.6 mph 13.0 mph 79 % 0.0 in
Observations météo à CASSIS
WU-History script by Weather Underground - 1 mb